sensor_id;sensor_type;location;lat;lon;timestamp;temperature;humidity
19403;DHT22;9837;48.888;8.998;2023-10-08T00:03:52;21.30;43.90
19403;DHT22;9837;48.888;8.998;2023-10-08T00:06:24;21.30;43.80
19403;DHT22;9837;48.888;8.998;2023-10-08T00:08:50;21.30;43.70
19403;DHT22;9837;48.888;8.998;2023-10-08T00:11:17;21.40;43.60
19403;DHT22;9837;48.888;8.998;2023-10-08T00:13:43;21.40;43.40
19403;DHT22;9837;48.888;8.998;2023-10-08T00:16:10;21.50;43.40
19403;DHT22;9837;48.888;8.998;2023-10-08T00:18:37;21.50;43.50
19403;DHT22;9837;48.888;8.998;2023-10-08T00:21:04;21.50;43.80
19403;DHT22;9837;48.888;8.998;2023-10-08T00:23:45;21.40;44.00
19403;DHT22;9837;48.888;8.998;2023-10-08T00:26:21;21.40;44.10
19403;DHT22;9837;48.888;8.998;2023-10-08T00:28:56;21.30;43.80
19403;DHT22;9837;48.888;8.998;2023-10-08T00:31:23;21.30;44.10
19403;DHT22;9837;48.888;8.998;2023-10-08T00:33:57;21.30;43.90
19403;DHT22;9837;48.888;8.998;2023-10-08T00:36:23;21.30;43.90
19403;DHT22;9837;48.888;8.998;2023-10-08T00:38:50;21.30;43.60
19403;DHT22;9837;48.888;8.998;2023-10-08T00:41:28;21.30;43.60
19403;DHT22;9837;48.888;8.998;2023-10-08T00:43:54;21.30;43.60
19403;DHT22;9837;48.888;8.998;2023-10-08T00:46:22;21.30;43.80
19403;DHT22;9837;48.888;8.998;2023-10-08T00:48:53;21.30;43.90
19403;DHT22;9837;48.888;8.998;2023-10-08T00:51:23;21.30;44.00
19403;DHT22;9837;48.888;8.998;2023-10-08T00:56:18;21.30;44.00
19403;DHT22;9837;48.888;8.998;2023-10-08T00:58:45;21.30;44.00
19403;DHT22;9837;48.888;8.998;2023-10-08T01:01:17;21.20;44.10
19403;DHT22;9837;48.888;8.998;2023-10-08T01:03:45;21.20;44.10
19403;DHT22;9837;48.888;8.998;2023-10-08T01:06:12;21.20;44.10
19403;DHT22;9837;48.888;8.998;2023-10-08T01:08:44;21.20;44.00
19403;DHT22;9837;48.888;8.998;2023-10-08T01:11:18;21.20;43.90
19403;DHT22;9837;48.888;8.998;2023-10-08T01:13:45;21.20;43.90
19403;DHT22;9837;48.888;8.998;2023-10-08T01:16:12;21.20;43.90
19403;DHT22;9837;48.888;8.998;2023-10-08T01:18:39;21.20;43.90
19403;DHT22;9837;48.888;8.998;2023-10-08T01:23:54;21.20;43.90
19403;DHT22;9837;48.888;8.998;2023-10-08T01:26:20;21.20;43.80
19403;DHT22;9837;48.888;8.998;2023-10-08T01:28:48;21.20;43.90
19403;DHT22;9837;48.888;8.998;2023-10-08T01:31:13;21.20;44.10
19403;DHT22;9837;48.888;8.998;2023-10-08T01:33:40;21.20;44.50
19403;DHT22;9837;48.888;8.998;2023-10-08T01:36:15;21.10;44.70
19403;DHT22;9837;48.888;8.998;2023-10-08T01:38:40;21.00;45.20
19403;DHT22;9837;48.888;8.998;2023-10-08T01:41:08;20.90;45.80
19403;DHT22;9837;48.888;8.998;2023-10-08T01:43:45;20.80;46.10
19403;DHT22;9837;48.888;8.998;2023-10-08T01:46:11;20.70;46.50
19403;DHT22;9837;48.888;8.998;2023-10-08T01:48:38;20.60;46.40
19403;DHT22;9837;48.888;8.998;2023-10-08T01:51:04;20.50;47.00
19403;DHT22;9837;48.888;8.998;2023-10-08T01:53:37;20.40;47.10
19403;DHT22;9837;48.888;8.998;2023-10-08T01:56:07;20.30;47.50
19403;DHT22;9837;48.888;8.998;2023-10-08T01:58:32;20.30;47.60
19403;DHT22;9837;48.888;8.998;2023-10-08T02:00:59;20.20;47.40
19403;DHT22;9837;48.888;8.998;2023-10-08T02:03:26;20.20;47.70
19403;DHT22;9837;48.888;8.998;2023-10-08T02:05:53;20.10;47.50
19403;DHT22;9837;48.888;8.998;2023-10-08T02:08:19;20.10;47.60
19403;DHT22;9837;48.888;8.998;2023-10-08T02:10:46;20.00;47.90
19403;DHT22;9837;48.888;8.998;2023-10-08T02:13:14;20.00;48.20
19403;DHT22;9837;48.888;8.998;2023-10-08T02:15:44;19.90;48.40
19403;DHT22;9837;48.888;8.998;2023-10-08T02:18:10;19.80;48.30
19403;DHT22;9837;48.888;8.998;2023-10-08T02:20:36;19.80;48.40
19403;DHT22;9837;48.888;8.998;2023-10-08T02:23:02;19.80;49.00
19403;DHT22;9837;48.888;8.998;2023-10-08T02:25:30;19.70;49.30
19403;DHT22;9837;48.888;8.998;2023-10-08T02:30:23;19.60;49.60
19403;DHT22;9837;48.888;8.998;2023-10-08T02:32:48;19.50;49.70
19403;DHT22;9837;48.888;8.998;2023-10-08T02:35:15;19.40;49.70
19403;DHT22;9837;48.888;8.998;2023-10-08T02:37:40;19.40;49.90
19403;DHT22;9837;48.888;8.998;2023-10-08T02:40:10;19.30;50.10
19403;DHT22;9837;48.888;8.998;2023-10-08T02:42:57;19.30;50.30
19403;DHT22;9837;48.888;8.998;2023-10-08T02:45:27;19.20;50.60
19403;DHT22;9837;48.888;8.998;2023-10-08T02:47:53;19.20;50.70
19403;DHT22;9837;48.888;8.998;2023-10-08T02:52:50;19.20;50.80
19403;DHT22;9837;48.888;8.998;2023-10-08T02:55:18;19.10;50.70
19403;DHT22;9837;48.888;8.998;2023-10-08T02:58:00;19.20;50.60
19403;DHT22;9837;48.888;8.998;2023-10-08T03:00:27;19.20;50.70
19403;DHT22;9837;48.888;8.998;2023-10-08T03:02:56;19.20;51.40
19403;DHT22;9837;48.888;8.998;2023-10-08T03:05:21;19.10;51.70
19403;DHT22;9837;48.888;8.998;2023-10-08T03:07:48;19.10;51.30
19403;DHT22;9837;48.888;8.998;2023-10-08T03:10:16;19.10;51.40
19403;DHT22;9837;48.888;8.998;2023-10-08T03:12:46;19.00;51.30
19403;DHT22;9837;48.888;8.998;2023-10-08T03:15:12;19.00;51.60
19403;DHT22;9837;48.888;8.998;2023-10-08T03:17:41;19.00;51.80
19403;DHT22;9837;48.888;8.998;2023-10-08T03:20:17;19.00;52.30
19403;DHT22;9837;48.888;8.998;2023-10-08T03:23:04;19.00;52.60
19403;DHT22;9837;48.888;8.998;2023-10-08T03:25:50;19.10;52.30
19403;DHT22;9837;48.888;8.998;2023-10-08T03:28:22;19.20;52.00
19403;DHT22;9837;48.888;8.998;2023-10-08T03:30:53;19.20;51.90
19403;DHT22;9837;48.888;8.998;2023-10-08T03:33:29;19.30;51.90
19403;DHT22;9837;48.888;8.998;2023-10-08T03:35:55;19.40;51.90
19403;DHT22;9837;48.888;8.998;2023-10-08T03:38:21;19.40;52.10
19403;DHT22;9837;48.888;8.998;2023-10-08T03:40:54;19.40;51.70
19403;DHT22;9837;48.888;8.998;2023-10-08T03:43:23;19.40;51.90
19403;DHT22;9837;48.888;8.998;2023-10-08T03:45:59;19.40;51.90
19403;DHT22;9837;48.888;8.998;2023-10-08T03:48:25;19.40;51.80
19403;DHT22;9837;48.888;8.998;2023-10-08T03:50:52;19.30;52.30
19403;DHT22;9837;48.888;8.998;2023-10-08T03:56:07;19.20;52.60
19403;DHT22;9837;48.888;8.998;2023-10-08T03:58:34;19.10;52.70
19403;DHT22;9837;48.888;8.998;2023-10-08T04:01:06;19.10;53.00
19403;DHT22;9837;48.888;8.998;2023-10-08T04:03:36;19.00;52.80
19403;DHT22;9837;48.888;8.998;2023-10-08T04:06:26;18.90;53.00
19403;DHT22;9837;48.888;8.998;2023-10-08T04:08:57;18.90;53.10
19403;DHT22;9837;48.888;8.998;2023-10-08T04:11:35;18.90;53.20
19403;DHT22;9837;48.888;8.998;2023-10-08T04:14:04;18.80;53.30
19403;DHT22;9837;48.888;8.998;2023-10-08T04:16:31;18.90;53.50
19403;DHT22;9837;48.888;8.998;2023-10-08T04:18:58;18.80;53.60
19403;DHT22;9837;48.888;8.998;2023-10-08T04:23:55;18.90;53.30
19403;DHT22;9837;48.888;8.998;2023-10-08T04:26:24;18.90;53.30
19403;DHT22;9837;48.888;8.998;2023-10-08T04:28:56;18.90;53.40
19403;DHT22;9837;48.888;8.998;2023-10-08T04:31:29;18.90;53.50
19403;DHT22;9837;48.888;8.998;2023-10-08T04:34:07;18.90;53.60
19403;DHT22;9837;48.888;8.998;2023-10-08T04:36:42;18.90;53.20
19403;DHT22;9837;48.888;8.998;2023-10-08T04:39:10;19.00;53.10
19403;DHT22;9837;48.888;8.998;2023-10-08T04:41:41;19.00;52.50
19403;DHT22;9837;48.888;8.998;2023-10-08T04:44:10;19.00;52.20
19403;DHT22;9837;48.888;8.998;2023-10-08T04:46:43;19.00;51.80
19403;DHT22;9837;48.888;8.998;2023-10-08T04:49:12;19.00;51.60
19403;DHT22;9837;48.888;8.998;2023-10-08T04:52:02;19.00;51.90
19403;DHT22;9837;48.888;8.998;2023-10-08T04:54:38;18.90;51.80
19403;DHT22;9837;48.888;8.998;2023-10-08T04:57:07;18.90;52.40
19403;DHT22;9837;48.888;8.998;2023-10-08T04:59:33;18.90;52.40
19403;DHT22;9837;48.888;8.998;2023-10-08T05:02:04;18.90;52.40
19403;DHT22;9837;48.888;8.998;2023-10-08T05:04:47;18.90;52.60
19403;DHT22;9837;48.888;8.998;2023-10-08T05:07:31;18.80;52.30
19403;DHT22;9837;48.888;8.998;2023-10-08T05:10:23;18.80;53.00
19403;DHT22;9837;48.888;8.998;2023-10-08T05:12:48;18.80;52.80
19403;DHT22;9837;48.888;8.998;2023-10-08T05:17:59;18.70;52.70
19403;DHT22;9837;48.888;8.998;2023-10-08T05:20:39;18.70;52.80
19403;DHT22;9837;48.888;8.998;2023-10-08T05:23:14;18.80;52.90
19403;DHT22;9837;48.888;8.998;2023-10-08T05:25:50;18.70;53.10
19403;DHT22;9837;48.888;8.998;2023-10-08T05:28:24;18.70;53.10
19403;DHT22;9837;48.888;8.998;2023-10-08T05:33:37;18.80;53.30
19403;DHT22;9837;48.888;8.998;2023-10-08T05:39:01;18.80;52.70
19403;DHT22;9837;48.888;8.998;2023-10-08T05:41:29;18.90;52.90
19403;DHT22;9837;48.888;8.998;2023-10-08T05:44:07;19.00;52.90
19403;DHT22;9837;48.888;8.998;2023-10-08T05:46:45;19.00;52.70
19403;DHT22;9837;48.888;8.998;2023-10-08T05:49:20;19.10;52.80
19403;DHT22;9837;48.888;8.998;2023-10-08T05:51:52;19.10;52.70
19403;DHT22;9837;48.888;8.998;2023-10-08T05:54:22;19.10;52.30
19403;DHT22;9837;48.888;8.998;2023-10-08T05:57:07;19.20;52.40
19403;DHT22;9837;48.888;8.998;2023-10-08T06:02:21;19.30;52.80
19403;DHT22;9837;48.888;8.998;2023-10-08T06:05:09;19.30;52.70
19403;DHT22;9837;48.888;8.998;2023-10-08T06:07:44;19.30;52.60
19403;DHT22;9837;48.888;8.998;2023-10-08T06:10:32;19.30;52.20
19403;DHT22;9837;48.888;8.998;2023-10-08T06:13:01;19.40;52.50
19403;DHT22;9837;48.888;8.998;2023-10-08T06:18:31;19.40;52.90
19403;DHT22;9837;48.888;8.998;2023-10-08T06:20:58;19.40;53.40
19403;DHT22;9837;48.888;8.998;2023-10-08T06:23:28;19.50;53.20
19403;DHT22;9837;48.888;8.998;2023-10-08T06:25:57;19.50;52.90
19403;DHT22;9837;48.888;8.998;2023-10-08T06:28:25;19.60;53.10
19403;DHT22;9837;48.888;8.998;2023-10-08T06:30:55;19.60;53.30
19403;DHT22;9837;48.888;8.998;2023-10-08T06:33:22;19.70;52.60
19403;DHT22;9837;48.888;8.998;2023-10-08T06:35:50;19.70;51.80
19403;DHT22;9837;48.888;8.998;2023-10-08T06:38:32;19.80;51.30
19403;DHT22;9837;48.888;8.998;2023-10-08T06:41:03;19.90;51.40
19403;DHT22;9837;48.888;8.998;2023-10-08T06:43:38;20.10;51.10
19403;DHT22;9837;48.888;8.998;2023-10-08T06:46:05;20.30;51.10
19403;DHT22;9837;48.888;8.998;2023-10-08T06:48:33;20.50;50.30
19403;DHT22;9837;48.888;8.998;2023-10-08T06:51:00;20.70;50.00
19403;DHT22;9837;48.888;8.998;2023-10-08T06:53:34;20.90;49.50
19403;DHT22;9837;48.888;8.998;2023-10-08T06:56:00;21.10;49.20
19403;DHT22;9837;48.888;8.998;2023-10-08T06:58:32;21.30;49.80
19403;DHT22;9837;48.888;8.998;2023-10-08T07:05:57;21.90;48.10
19403;DHT22;9837;48.888;8.998;2023-10-08T07:08:29;22.00;48.00
19403;DHT22;9837;48.888;8.998;2023-10-08T07:11:01;22.20;47.70
19403;DHT22;9837;48.888;8.998;2023-10-08T07:15:57;22.60;48.80
19403;DHT22;9837;48.888;8.998;2023-10-08T07:18:23;22.90;47.10
19403;DHT22;9837;48.888;8.998;2023-10-08T07:20:53;23.10;46.40
19403;DHT22;9837;48.888;8.998;2023-10-08T07:23:23;23.10;47.10
19403;DHT22;9837;48.888;8.998;2023-10-08T07:25:57;23.00;47.60
19403;DHT22;9837;48.888;8.998;2023-10-08T07:28:42;23.00;47.40
19403;DHT22;9837;48.888;8.998;2023-10-08T07:31:15;23.00;47.10
19403;DHT22;9837;48.888;8.998;2023-10-08T07:33:48;23.10;47.30
19403;DHT22;9837;48.888;8.998;2023-10-08T07:36:13;23.00;47.40
19403;DHT22;9837;48.888;8.998;2023-10-08T07:38:44;23.00;47.40
19403;DHT22;9837;48.888;8.998;2023-10-08T07:41:13;23.10;47.90
19403;DHT22;9837;48.888;8.998;2023-10-08T07:43:43;23.20;48.40
19403;DHT22;9837;48.888;8.998;2023-10-08T07:46:09;23.30;48.50
19403;DHT22;9837;48.888;8.998;2023-10-08T07:48:36;23.40;48.00
19403;DHT22;9837;48.888;8.998;2023-10-08T07:53:28;23.00;47.80
19403;DHT22;9837;48.888;8.998;2023-10-08T07:56:05;23.00;48.40
19403;DHT22;9837;48.888;8.998;2023-10-08T07:58:32;23.10;48.60
19403;DHT22;9837;48.888;8.998;2023-10-08T08:01:06;23.10;49.20
19403;DHT22;9837;48.888;8.998;2023-10-08T08:03:36;23.20;49.20
19403;DHT22;9837;48.888;8.998;2023-10-08T08:06:06;23.20;49.20
19403;DHT22;9837;48.888;8.998;2023-10-08T08:08:36;23.30;49.40
19403;DHT22;9837;48.888;8.998;2023-10-08T08:11:06;23.50;47.60
19403;DHT22;9837;48.888;8.998;2023-10-08T08:13:41;23.60;46.30
19403;DHT22;9837;48.888;8.998;2023-10-08T08:16:11;23.70;45.90
19403;DHT22;9837;48.888;8.998;2023-10-08T08:18:47;23.70;46.40
19403;DHT22;9837;48.888;8.998;2023-10-08T08:21:14;23.80;46.50
19403;DHT22;9837;48.888;8.998;2023-10-08T08:23:47;23.80;46.20
19403;DHT22;9837;48.888;8.998;2023-10-08T08:26:16;23.90;46.90
19403;DHT22;9837;48.888;8.998;2023-10-08T08:28:59;23.90;47.20
19403;DHT22;9837;48.888;8.998;2023-10-08T08:31:26;24.00;46.90
19403;DHT22;9837;48.888;8.998;2023-10-08T08:33:53;24.20;47.00
19403;DHT22;9837;48.888;8.998;2023-10-08T08:36:22;24.30;45.70
19403;DHT22;9837;48.888;8.998;2023-10-08T08:38:48;24.40;45.00
19403;DHT22;9837;48.888;8.998;2023-10-08T08:41:15;24.40;44.80
19403;DHT22;9837;48.888;8.998;2023-10-08T08:43:50;24.50;44.90
19403;DHT22;9837;48.888;8.998;2023-10-08T08:46:30;24.70;44.10
19403;DHT22;9837;48.888;8.998;2023-10-08T08:49:01;24.70;43.80
19403;DHT22;9837;48.888;8.998;2023-10-08T08:51:28;24.80;44.30
19403;DHT22;9837;48.888;8.998;2023-10-08T08:53:55;24.60;43.90
19403;DHT22;9837;48.888;8.998;2023-10-08T08:56:21;24.50;44.40
19403;DHT22;9837;48.888;8.998;2023-10-08T08:58:49;24.60;44.80
19403;DHT22;9837;48.888;8.998;2023-10-08T09:01:16;24.70;44.60
19403;DHT22;9837;48.888;8.998;2023-10-08T09:03:43;24.80;44.50
19403;DHT22;9837;48.888;8.998;2023-10-08T09:08:37;24.90;44.60
19403;DHT22;9837;48.888;8.998;2023-10-08T09:11:03;25.10;44.70
19403;DHT22;9837;48.888;8.998;2023-10-08T09:13:34;25.10;44.80
19403;DHT22;9837;48.888;8.998;2023-10-08T09:16:18;25.30;44.60
19403;DHT22;9837;48.888;8.998;2023-10-08T09:18:44;25.30;44.60
19403;DHT22;9837;48.888;8.998;2023-10-08T09:21:13;25.50;44.90
19403;DHT22;9837;48.888;8.998;2023-10-08T09:23:40;25.60;44.50
19403;DHT22;9837;48.888;8.998;2023-10-08T09:26:10;25.70;44.60
19403;DHT22;9837;48.888;8.998;2023-10-08T09:28:37;25.70;44.00
19403;DHT22;9837;48.888;8.998;2023-10-08T09:31:04;25.90;43.20
19403;DHT22;9837;48.888;8.998;2023-10-08T09:35:59;26.30;43.10
19403;DHT22;9837;48.888;8.998;2023-10-08T09:38:30;26.50;42.50
19403;DHT22;9837;48.888;8.998;2023-10-08T09:40:57;26.60;41.70
19403;DHT22;9837;48.888;8.998;2023-10-08T09:43:23;26.80;41.40
19403;DHT22;9837;48.888;8.998;2023-10-08T09:48:37;27.10;41.70
19403;DHT22;9837;48.888;8.998;2023-10-08T09:51:05;27.20;42.10
19403;DHT22;9837;48.888;8.998;2023-10-08T09:56:14;27.30;42.00
19403;DHT22;9837;48.888;8.998;2023-10-08T09:58:42;27.40;39.80
19403;DHT22;9837;48.888;8.998;2023-10-08T10:01:08;27.30;39.40
19403;DHT22;9837;48.888;8.998;2023-10-08T10:03:35;27.10;39.40
19403;DHT22;9837;48.888;8.998;2023-10-08T10:06:01;27.20;38.90
19403;DHT22;9837;48.888;8.998;2023-10-08T10:08:27;27.10;38.50
19403;DHT22;9837;48.888;8.998;2023-10-08T10:10:59;27.10;39.00
19403;DHT22;9837;48.888;8.998;2023-10-08T10:13:28;27.00;38.50
19403;DHT22;9837;48.888;8.998;2023-10-08T10:15:54;26.80;38.60
19403;DHT22;9837;48.888;8.998;2023-10-08T10:20:52;26.70;39.00
19403;DHT22;9837;48.888;8.998;2023-10-08T10:23:41;26.20;38.40
19403;DHT22;9837;48.888;8.998;2023-10-08T10:26:28;26.10;39.20
19403;DHT22;9837;48.888;8.998;2023-10-08T10:31:46;25.90;42.30
19403;DHT22;9837;48.888;8.998;2023-10-08T10:34:17;26.20;42.10
19403;DHT22;9837;48.888;8.998;2023-10-08T10:36:45;26.50;42.00
19403;DHT22;9837;48.888;8.998;2023-10-08T10:39:18;26.40;41.70
19403;DHT22;9837;48.888;8.998;2023-10-08T10:41:57;26.50;41.80
19403;DHT22;9837;48.888;8.998;2023-10-08T10:44:26;26.70;41.40
19403;DHT22;9837;48.888;8.998;2023-10-08T10:46:52;27.00;41.30
19403;DHT22;9837;48.888;8.998;2023-10-08T10:49:38;27.10;40.90
19403;DHT22;9837;48.888;8.998;2023-10-08T10:52:24;27.30;40.30
19403;DHT22;9837;48.888;8.998;2023-10-08T10:55:09;27.40;40.50
19403;DHT22;9837;48.888;8.998;2023-10-08T10:57:46;27.50;39.70
19403;DHT22;9837;48.888;8.998;2023-10-08T11:00:24;27.40;39.40
19403;DHT22;9837;48.888;8.998;2023-10-08T11:03:01;27.50;39.80
19403;DHT22;9837;48.888;8.998;2023-10-08T11:05:32;27.70;40.10
19403;DHT22;9837;48.888;8.998;2023-10-08T11:08:03;28.00;39.60
19403;DHT22;9837;48.888;8.998;2023-10-08T11:10:31;28.30;39.20
19403;DHT22;9837;48.888;8.998;2023-10-08T11:12:58;28.40;38.30
19403;DHT22;9837;48.888;8.998;2023-10-08T11:15:28;28.30;37.40
19403;DHT22;9837;48.888;8.998;2023-10-08T11:18:10;28.40;37.70
19403;DHT22;9837;48.888;8.998;2023-10-08T11:20:36;28.50;37.40
19403;DHT22;9837;48.888;8.998;2023-10-08T11:23:08;28.50;37.30
19403;DHT22;9837;48.888;8.998;2023-10-08T11:26:04;28.70;37.70
19403;DHT22;9837;48.888;8.998;2023-10-08T11:28:40;29.10;36.70
19403;DHT22;9837;48.888;8.998;2023-10-08T11:31:12;29.40;36.70
19403;DHT22;9837;48.888;8.998;2023-10-08T11:33:43;29.50;36.40
19403;DHT22;9837;48.888;8.998;2023-10-08T11:36:22;29.70;35.20
19403;DHT22;9837;48.888;8.998;2023-10-08T11:38:59;29.70;33.80
19403;DHT22;9837;48.888;8.998;2023-10-08T11:41:33;29.50;35.30
19403;DHT22;9837;48.888;8.998;2023-10-08T11:46:46;29.80;34.10
19403;DHT22;9837;48.888;8.998;2023-10-08T11:49:17;30.00;33.50
19403;DHT22;9837;48.888;8.998;2023-10-08T11:54:21;30.20;33.00
19403;DHT22;9837;48.888;8.998;2023-10-08T11:56:48;30.20;32.20
19403;DHT22;9837;48.888;8.998;2023-10-08T11:59:14;30.30;33.20
19403;DHT22;9837;48.888;8.998;2023-10-08T12:01:40;30.40;32.20
19403;DHT22;9837;48.888;8.998;2023-10-08T12:04:09;30.60;32.00
19403;DHT22;9837;48.888;8.998;2023-10-08T12:06:42;30.70;31.40
19403;DHT22;9837;48.888;8.998;2023-10-08T12:09:18;30.50;31.30
19403;DHT22;9837;48.888;8.998;2023-10-08T12:11:49;30.60;32.30
19403;DHT22;9837;48.888;8.998;2023-10-08T12:14:16;30.80;31.60
19403;DHT22;9837;48.888;8.998;2023-10-08T12:16:42;30.80;30.90
19403;DHT22;9837;48.888;8.998;2023-10-08T12:21:43;30.40;31.00
19403;DHT22;9837;48.888;8.998;2023-10-08T12:24:11;30.30;30.90
19403;DHT22;9837;48.888;8.998;2023-10-08T12:26:38;30.00;31.70
19403;DHT22;9837;48.888;8.998;2023-10-08T12:29:11;30.00;32.30
19403;DHT22;9837;48.888;8.998;2023-10-08T12:31:37;30.20;31.80
19403;DHT22;9837;48.888;8.998;2023-10-08T12:34:02;30.20;32.40
19403;DHT22;9837;48.888;8.998;2023-10-08T12:36:29;30.20;30.90
19403;DHT22;9837;48.888;8.998;2023-10-08T12:38:58;30.10;31.70
19403;DHT22;9837;48.888;8.998;2023-10-08T12:41:27;30.40;31.20
19403;DHT22;9837;48.888;8.998;2023-10-08T12:43:53;30.40;31.60
19403;DHT22;9837;48.888;8.998;2023-10-08T12:46:20;30.50;31.30
19403;DHT22;9837;48.888;8.998;2023-10-08T12:48:56;30.70;30.70
19403;DHT22;9837;48.888;8.998;2023-10-08T12:51:23;30.70;31.20
19403;DHT22;9837;48.888;8.998;2023-10-08T12:53:52;30.70;30.00
19403;DHT22;9837;48.888;8.998;2023-10-08T12:56:25;30.80;29.90
19403;DHT22;9837;48.888;8.998;2023-10-08T12:58:58;30.40;29.90
19403;DHT22;9837;48.888;8.998;2023-10-08T13:03:54;30.50;30.80
19403;DHT22;9837;48.888;8.998;2023-10-08T13:06:25;30.70;30.60
19403;DHT22;9837;48.888;8.998;2023-10-08T13:08:58;30.80;29.80
19403;DHT22;9837;48.888;8.998;2023-10-08T13:11:26;30.70;29.80
19403;DHT22;9837;48.888;8.998;2023-10-08T13:13:56;30.40;29.50
19403;DHT22;9837;48.888;8.998;2023-10-08T13:16:25;30.00;30.00
19403;DHT22;9837;48.888;8.998;2023-10-08T13:18:52;29.60;30.20
19403;DHT22;9837;48.888;8.998;2023-10-08T13:21:18;29.60;30.50
19403;DHT22;9837;48.888;8.998;2023-10-08T13:23:50;29.80;30.50
19403;DHT22;9837;48.888;8.998;2023-10-08T13:26:16;30.10;30.40
19403;DHT22;9837;48.888;8.998;2023-10-08T13:28:42;30.20;30.80
19403;DHT22;9837;48.888;8.998;2023-10-08T13:31:08;30.20;30.70
19403;DHT22;9837;48.888;8.998;2023-10-08T13:33:41;30.20;30.60
19403;DHT22;9837;48.888;8.998;2023-10-08T13:36:15;30.30;30.70
19403;DHT22;9837;48.888;8.998;2023-10-08T13:38:41;30.40;30.90
19403;DHT22;9837;48.888;8.998;2023-10-08T13:41:10;30.40;30.20
19403;DHT22;9837;48.888;8.998;2023-10-08T13:43:46;30.10;31.20
19403;DHT22;9837;48.888;8.998;2023-10-08T13:46:17;30.00;30.80
19403;DHT22;9837;48.888;8.998;2023-10-08T13:48:45;29.90;31.30
19403;DHT22;9837;48.888;8.998;2023-10-08T13:51:18;30.00;30.90
19403;DHT22;9837;48.888;8.998;2023-10-08T13:53:56;29.80;30.50
19403;DHT22;9837;48.888;8.998;2023-10-08T13:56:26;29.40;31.40
19403;DHT22;9837;48.888;8.998;2023-10-08T13:58:53;29.40;31.90
19403;DHT22;9837;48.888;8.998;2023-10-08T14:01:33;29.60;32.30
19403;DHT22;9837;48.888;8.998;2023-10-08T14:04:04;29.90;32.10
19403;DHT22;9837;48.888;8.998;2023-10-08T14:06:37;29.90;31.70
19403;DHT22;9837;48.888;8.998;2023-10-08T14:09:06;29.60;31.80
19403;DHT22;9837;48.888;8.998;2023-10-08T14:11:34;29.50;32.20
19403;DHT22;9837;48.888;8.998;2023-10-08T14:14:00;29.40;32.10
19403;DHT22;9837;48.888;8.998;2023-10-08T14:16:34;29.30;31.90
19403;DHT22;9837;48.888;8.998;2023-10-08T14:18:59;28.90;33.10
19403;DHT22;9837;48.888;8.998;2023-10-08T14:21:26;29.10;33.40
19403;DHT22;9837;48.888;8.998;2023-10-08T14:24:04;29.30;33.40
19403;DHT22;9837;48.888;8.998;2023-10-08T14:26:30;29.30;32.50
19403;DHT22;9837;48.888;8.998;2023-10-08T14:29:02;29.40;33.30
19403;DHT22;9837;48.888;8.998;2023-10-08T14:31:33;29.40;33.20
19403;DHT22;9837;48.888;8.998;2023-10-08T14:34:04;29.30;33.90
19403;DHT22;9837;48.888;8.998;2023-10-08T14:36:52;28.80;34.50
19403;DHT22;9837;48.888;8.998;2023-10-08T14:39:36;28.40;35.40
19403;DHT22;9837;48.888;8.998;2023-10-08T14:42:20;28.30;36.20
19403;DHT22;9837;48.888;8.998;2023-10-08T14:45:05;28.40;35.70
19403;DHT22;9837;48.888;8.998;2023-10-08T14:47:39;28.40;35.80
19403;DHT22;9837;48.888;8.998;2023-10-08T14:50:05;28.30;36.30
19403;DHT22;9837;48.888;8.998;2023-10-08T14:52:31;27.90;36.70
19403;DHT22;9837;48.888;8.998;2023-10-08T14:54:58;27.90;37.30
19403;DHT22;9837;48.888;8.998;2023-10-08T14:57:24;27.90;37.30
19403;DHT22;9837;48.888;8.998;2023-10-08T14:59:52;27.80;37.70
19403;DHT22;9837;48.888;8.998;2023-10-08T15:02:18;27.80;37.70
19403;DHT22;9837;48.888;8.998;2023-10-08T15:04:43;27.90;38.20
19403;DHT22;9837;48.888;8.998;2023-10-08T15:07:10;28.00;37.90
19403;DHT22;9837;48.888;8.998;2023-10-08T15:09:43;28.10;38.10
19403;DHT22;9837;48.888;8.998;2023-10-08T15:12:10;28.20;38.00
19403;DHT22;9837;48.888;8.998;2023-10-08T15:14:35;28.30;37.60
19403;DHT22;9837;48.888;8.998;2023-10-08T15:19:30;28.10;38.10
19403;DHT22;9837;48.888;8.998;2023-10-08T15:21:57;28.10;38.20
19403;DHT22;9837;48.888;8.998;2023-10-08T15:24:23;28.10;38.30
19403;DHT22;9837;48.888;8.998;2023-10-08T15:26:53;28.00;38.40
19403;DHT22;9837;48.888;8.998;2023-10-08T15:29:20;28.00;38.40
19403;DHT22;9837;48.888;8.998;2023-10-08T15:31:49;27.80;38.40
19403;DHT22;9837;48.888;8.998;2023-10-08T15:34:17;27.80;38.90
19403;DHT22;9837;48.888;8.998;2023-10-08T15:36:42;27.80;39.10
19403;DHT22;9837;48.888;8.998;2023-10-08T15:39:08;27.80;39.00
19403;DHT22;9837;48.888;8.998;2023-10-08T15:41:50;27.80;39.10
19403;DHT22;9837;48.888;8.998;2023-10-08T15:44:19;27.80;39.40
19403;DHT22;9837;48.888;8.998;2023-10-08T15:46:49;27.80;39.40
19403;DHT22;9837;48.888;8.998;2023-10-08T15:49:15;27.80;39.30
19403;DHT22;9837;48.888;8.998;2023-10-08T15:51:41;27.80;39.50
19403;DHT22;9837;48.888;8.998;2023-10-08T15:54:07;27.80;40.10
19403;DHT22;9837;48.888;8.998;2023-10-08T15:56:33;27.90;39.80
19403;DHT22;9837;48.888;8.998;2023-10-08T16:01:25;27.90;40.00
19403;DHT22;9837;48.888;8.998;2023-10-08T16:08:46;27.90;40.30
19403;DHT22;9837;48.888;8.998;2023-10-08T16:11:12;27.90;40.60
19403;DHT22;9837;48.888;8.998;2023-10-08T16:13:38;27.70;40.60
19403;DHT22;9837;48.888;8.998;2023-10-08T16:16:05;27.70;41.60
19403;DHT22;9837;48.888;8.998;2023-10-08T16:18:34;27.60;41.90
19403;DHT22;9837;48.888;8.998;2023-10-08T16:20:59;27.50;42.20
19403;DHT22;9837;48.888;8.998;2023-10-08T16:23:25;27.40;42.50
19403;DHT22;9837;48.888;8.998;2023-10-08T16:25:53;27.30;42.30
19403;DHT22;9837;48.888;8.998;2023-10-08T16:28:19;27.20;42.50
19403;DHT22;9837;48.888;8.998;2023-10-08T16:30:45;27.10;43.30
19403;DHT22;9837;48.888;8.998;2023-10-08T16:33:17;27.10;43.20
19403;DHT22;9837;48.888;8.998;2023-10-08T16:35:43;26.90;42.90
19403;DHT22;9837;48.888;8.998;2023-10-08T16:38:12;26.80;43.10
19403;DHT22;9837;48.888;8.998;2023-10-08T16:40:39;26.70;42.40
19403;DHT22;9837;48.888;8.998;2023-10-08T16:43:04;26.50;41.00
19403;DHT22;9837;48.888;8.998;2023-10-08T16:45:30;26.30;41.00
19403;DHT22;9837;48.888;8.998;2023-10-08T16:47:58;26.20;41.20
19403;DHT22;9837;48.888;8.998;2023-10-08T16:50:24;26.20;41.60
19403;DHT22;9837;48.888;8.998;2023-10-08T16:52:50;26.20;42.20
19403;DHT22;9837;48.888;8.998;2023-10-08T16:55:17;26.00;41.60
19403;DHT22;9837;48.888;8.998;2023-10-08T16:57:42;26.00;41.80
19403;DHT22;9837;48.888;8.998;2023-10-08T17:00:09;25.90;42.00
19403;DHT22;9837;48.888;8.998;2023-10-08T17:02:38;25.80;41.80
19403;DHT22;9837;48.888;8.998;2023-10-08T17:05:04;25.80;42.00
19403;DHT22;9837;48.888;8.998;2023-10-08T17:07:30;25.70;42.10
19403;DHT22;9837;48.888;8.998;2023-10-08T17:09:56;25.70;42.20
19403;DHT22;9837;48.888;8.998;2023-10-08T17:12:21;25.70;42.80
19403;DHT22;9837;48.888;8.998;2023-10-08T17:14:47;25.60;43.00
19403;DHT22;9837;48.888;8.998;2023-10-08T17:17:13;25.50;43.30
19403;DHT22;9837;48.888;8.998;2023-10-08T17:19:41;25.40;43.70
19403;DHT22;9837;48.888;8.998;2023-10-08T17:24:34;25.10;44.20